sensor_id;sensor_type;location;lat;lon;timestamp;P1;durP1;ratioP1;P2;durP2;ratioP2
32130;SDS011;18639;50.716;7.086;2022-11-15T00:00:24;4.13;;;1.77;;
32130;SDS011;18639;50.716;7.086;2022-11-15T00:02:52;3.42;;;1.77;;
32130;SDS011;18639;50.716;7.086;2022-11-15T00:05:17;8.10;;;2.20;;
32130;SDS011;18639;50.716;7.086;2022-11-15T00:07:43;6.53;;;2.40;;
32130;SDS011;18639;50.716;7.086;2022-11-15T00:10:08;6.30;;;2.38;;
32130;SDS011;18639;50.716;7.086;2022-11-15T00:12:34;4.18;;;2.10;;
32130;SDS011;18639;50.716;7.086;2022-11-15T00:14:59;4.47;;;1.90;;
32130;SDS011;18639;50.716;7.086;2022-11-15T00:17:24;2.63;;;1.88;;
32130;SDS011;18639;50.716;7.086;2022-11-15T00:19:50;4.18;;;2.25;;
32130;SDS011;18639;50.716;7.086;2022-11-15T00:22:15;3.13;;;1.70;;
32130;SDS011;18639;50.716;7.086;2022-11-15T00:24:40;4.25;;;1.83;;
32130;SDS011;18639;50.716;7.086;2022-11-15T00:27:05;3.28;;;1.70;;
32130;SDS011;18639;50.716;7.086;2022-11-15T00:29:31;5.40;;;2.00;;
32130;SDS011;18639;50.716;7.086;2022-11-15T00:31:56;2.35;;;1.60;;
32130;SDS011;18639;50.716;7.086;2022-11-15T00:34:21;3.58;;;1.73;;
32130;SDS011;18639;50.716;7.086;2022-11-15T00:36:46;3.55;;;1.90;;
32130;SDS011;18639;50.716;7.086;2022-11-15T00:39:12;4.45;;;1.77;;
32130;SDS011;18639;50.716;7.086;2022-11-15T00:41:37;5.15;;;1.83;;
32130;SDS011;18639;50.716;7.086;2022-11-15T00:44:02;3.58;;;1.90;;
32130;SDS011;18639;50.716;7.086;2022-11-15T00:46:28;2.55;;;1.60;;
32130;SDS011;18639;50.716;7.086;2022-11-15T00:48:53;3.97;;;1.75;;
32130;SDS011;18639;50.716;7.086;2022-11-15T00:51:18;3.00;;;1.50;;
32130;SDS011;18639;50.716;7.086;2022-11-15T00:53:44;2.90;;;1.52;;
32130;SDS011;18639;50.716;7.086;2022-11-15T00:56:09;5.82;;;1.77;;
32130;SDS011;18639;50.716;7.086;2022-11-15T00:58:34;4.70;;;1.48;;
32130;SDS011;18639;50.716;7.086;2022-11-15T01:01:06;2.88;;;1.60;;
32130;SDS011;18639;50.716;7.086;2022-11-15T01:03:36;3.40;;;1.85;;
32130;SDS011;18639;50.716;7.086;2022-11-15T01:06:03;3.65;;;1.90;;
32130;SDS011;18639;50.716;7.086;2022-11-15T01:08:28;3.45;;;1.85;;
32130;SDS011;18639;50.716;7.086;2022-11-15T01:10:54;2.70;;;1.15;;
32130;SDS011;18639;50.716;7.086;2022-11-15T01:13:19;3.20;;;1.55;;
32130;SDS011;18639;50.716;7.086;2022-11-15T01:15:44;3.65;;;1.88;;
32130;SDS011;18639;50.716;7.086;2022-11-15T01:18:09;2.58;;;1.35;;
32130;SDS011;18639;50.716;7.086;2022-11-15T01:20:39;2.70;;;1.50;;
32130;SDS011;18639;50.716;7.086;2022-11-15T01:23:07;6.43;;;1.60;;
32130;SDS011;18639;50.716;7.086;2022-11-15T01:25:32;5.80;;;1.90;;
32130;SDS011;18639;50.716;7.086;2022-11-15T01:27:57;5.15;;;1.77;;
32130;SDS011;18639;50.716;7.086;2022-11-15T01:30:23;4.03;;;1.88;;
32130;SDS011;18639;50.716;7.086;2022-11-15T01:32:48;4.28;;;1.80;;
32130;SDS011;18639;50.716;7.086;2022-11-15T01:35:13;3.72;;;1.70;;
32130;SDS011;18639;50.716;7.086;2022-11-15T01:37:39;2.17;;;1.42;;
32130;SDS011;18639;50.716;7.086;2022-11-15T01:40:04;3.22;;;1.42;;
32130;SDS011;18639;50.716;7.086;2022-11-15T01:42:30;5.60;;;1.85;;
32130;SDS011;18639;50.716;7.086;2022-11-15T01:44:55;3.90;;;1.70;;
32130;SDS011;18639;50.716;7.086;2022-11-15T01:47:22;5.18;;;1.52;;
32130;SDS011;18639;50.716;7.086;2022-11-15T01:52:28;3.20;;;1.40;;
32130;SDS011;18639;50.716;7.086;2022-11-15T01:55:01;4.45;;;1.92;;
32130;SDS011;18639;50.716;7.086;2022-11-15T01:57:31;3.08;;;1.40;;
32130;SDS011;18639;50.716;7.086;2022-11-15T01:59:57;3.75;;;1.63;;
32130;SDS011;18639;50.716;7.086;2022-11-15T02:02:23;5.03;;;1.88;;
32130;SDS011;18639;50.716;7.086;2022-11-15T02:04:48;2.47;;;1.27;;
32130;SDS011;18639;50.716;7.086;2022-11-15T02:07:17;3.53;;;1.88;;
32130;SDS011;18639;50.716;7.086;2022-11-15T02:09:45;4.57;;;2.40;;
32130;SDS011;18639;50.716;7.086;2022-11-15T02:12:10;3.65;;;1.70;;
32130;SDS011;18639;50.716;7.086;2022-11-15T02:14:40;3.47;;;2.08;;
32130;SDS011;18639;50.716;7.086;2022-11-15T02:17:43;4.82;;;2.10;;
32130;SDS011;18639;50.716;7.086;2022-11-15T02:20:24;7.60;;;2.00;;
32130;SDS011;18639;50.716;7.086;2022-11-15T02:25:48;3.42;;;1.88;;
32130;SDS011;18639;50.716;7.086;2022-11-15T02:28:44;2.40;;;1.55;;
32130;SDS011;18639;50.716;7.086;2022-11-15T02:36:38;4.25;;;1.88;;
32130;SDS011;18639;50.716;7.086;2022-11-15T02:42:02;2.20;;;1.33;;
32130;SDS011;18639;50.716;7.086;2022-11-15T02:44:51;3.58;;;1.55;;
32130;SDS011;18639;50.716;7.086;2022-11-15T02:47:20;4.63;;;1.83;;
32130;SDS011;18639;50.716;7.086;2022-11-15T02:49:53;4.35;;;1.80;;
32130;SDS011;18639;50.716;7.086;2022-11-15T02:52:22;3.45;;;1.65;;
32130;SDS011;18639;50.716;7.086;2022-11-15T02:54:54;5.85;;;2.08;;
32130;SDS011;18639;50.716;7.086;2022-11-15T03:00:15;3.97;;;1.80;;
32130;SDS011;18639;50.716;7.086;2022-11-15T03:02:46;2.40;;;1.50;;
32130;SDS011;18639;50.716;7.086;2022-11-15T03:05:37;4.85;;;1.73;;
32130;SDS011;18639;50.716;7.086;2022-11-15T03:13:38;3.55;;;1.38;;
32130;SDS011;18639;50.716;7.086;2022-11-15T03:18:41;3.08;;;1.48;;
32130;SDS011;18639;50.716;7.086;2022-11-15T03:21:11;3.83;;;1.50;;
32130;SDS011;18639;50.716;7.086;2022-11-15T03:23:39;6.97;;;1.67;;
32130;SDS011;18639;50.716;7.086;2022-11-15T03:26:05;3.10;;;1.63;;
32130;SDS011;18639;50.716;7.086;2022-11-15T03:28:38;4.88;;;1.88;;
32130;SDS011;18639;50.716;7.086;2022-11-15T03:31:10;4.22;;;1.85;;
32130;SDS011;18639;50.716;7.086;2022-11-15T03:33:57;6.60;;;1.90;;
32130;SDS011;18639;50.716;7.086;2022-11-15T03:36:26;3.42;;;1.40;;
32130;SDS011;18639;50.716;7.086;2022-11-15T03:38:53;2.17;;;1.50;;
32130;SDS011;18639;50.716;7.086;2022-11-15T03:41:24;3.25;;;1.90;;
32130;SDS011;18639;50.716;7.086;2022-11-15T03:43:57;3.65;;;1.98;;
32130;SDS011;18639;50.716;7.086;2022-11-15T03:46:33;4.38;;;1.65;;
32130;SDS011;18639;50.716;7.086;2022-11-15T03:49:10;3.42;;;1.65;;
32130;SDS011;18639;50.716;7.086;2022-11-15T03:51:40;5.22;;;1.33;;
32130;SDS011;18639;50.716;7.086;2022-11-15T03:54:05;3.22;;;1.60;;
32130;SDS011;18639;50.716;7.086;2022-11-15T03:56:31;4.65;;;2.05;;
32130;SDS011;18639;50.716;7.086;2022-11-15T03:58:56;3.03;;;1.70;;
32130;SDS011;18639;50.716;7.086;2022-11-15T04:01:21;2.70;;;1.70;;
32130;SDS011;18639;50.716;7.086;2022-11-15T04:03:47;3.45;;;1.60;;
32130;SDS011;18639;50.716;7.086;2022-11-15T04:06:12;3.33;;;2.00;;
32130;SDS011;18639;50.716;7.086;2022-11-15T04:08:37;3.08;;;1.52;;
32130;SDS011;18639;50.716;7.086;2022-11-15T04:11:03;3.90;;;1.55;;
32130;SDS011;18639;50.716;7.086;2022-11-15T04:13:28;2.55;;;1.33;;
32130;SDS011;18639;50.716;7.086;2022-11-15T04:15:53;3.55;;;1.75;;
32130;SDS011;18639;50.716;7.086;2022-11-15T04:18:18;2.53;;;1.45;;
32130;SDS011;18639;50.716;7.086;2022-11-15T04:20:44;3.00;;;1.52;;
32130;SDS011;18639;50.716;7.086;2022-11-15T04:23:28;3.17;;;1.40;;
32130;SDS011;18639;50.716;7.086;2022-11-15T04:26:12;2.45;;;1.50;;
32130;SDS011;18639;50.716;7.086;2022-11-15T04:28:43;3.22;;;1.45;;
32130;SDS011;18639;50.716;7.086;2022-11-15T04:31:27;2.42;;;1.40;;
32130;SDS011;18639;50.716;7.086;2022-11-15T04:33:52;3.70;;;1.40;;
32130;SDS011;18639;50.716;7.086;2022-11-15T04:36:18;2.92;;;1.48;;
32130;SDS011;18639;50.716;7.086;2022-11-15T04:39:03;3.47;;;1.50;;
32130;SDS011;18639;50.716;7.086;2022-11-15T04:41:28;2.78;;;1.33;;
32130;SDS011;18639;50.716;7.086;2022-11-15T04:43:56;2.20;;;1.40;;
32130;SDS011;18639;50.716;7.086;2022-11-15T04:46:22;2.70;;;1.50;;
32130;SDS011;18639;50.716;7.086;2022-11-15T04:48:48;2.10;;;1.25;;
32130;SDS011;18639;50.716;7.086;2022-11-15T04:51:14;4.18;;;1.70;;
32130;SDS011;18639;50.716;7.086;2022-11-15T04:53:39;2.45;;;1.45;;
32130;SDS011;18639;50.716;7.086;2022-11-15T04:56:04;2.13;;;1.30;;
32130;SDS011;18639;50.716;7.086;2022-11-15T04:58:30;4.05;;;1.48;;
32130;SDS011;18639;50.716;7.086;2022-11-15T05:00:55;2.05;;;1.20;;
32130;SDS011;18639;50.716;7.086;2022-11-15T05:03:20;3.40;;;1.58;;
32130;SDS011;18639;50.716;7.086;2022-11-15T05:06:05;3.25;;;1.52;;
32130;SDS011;18639;50.716;7.086;2022-11-15T05:08:30;2.85;;;1.52;;
32130;SDS011;18639;50.716;7.086;2022-11-15T05:10:55;2.25;;;1.48;;
32130;SDS011;18639;50.716;7.086;2022-11-15T05:13:21;1.75;;;1.23;;
32130;SDS011;18639;50.716;7.086;2022-11-15T05:15:46;3.45;;;1.30;;
32130;SDS011;18639;50.716;7.086;2022-11-15T05:18:12;3.20;;;1.33;;
32130;SDS011;18639;50.716;7.086;2022-11-15T05:20:37;2.20;;;1.15;;
32130;SDS011;18639;50.716;7.086;2022-11-15T05:23:02;2.60;;;1.30;;
32130;SDS011;18639;50.716;7.086;2022-11-15T05:25:27;2.10;;;1.30;;
32130;SDS011;18639;50.716;7.086;2022-11-15T05:27:53;2.50;;;1.23;;
32130;SDS011;18639;50.716;7.086;2022-11-15T05:30:18;2.85;;;1.33;;
32130;SDS011;18639;50.716;7.086;2022-11-15T05:32:44;1.83;;;1.00;;
32130;SDS011;18639;50.716;7.086;2022-11-15T05:35:12;2.80;;;1.30;;
32130;SDS011;18639;50.716;7.086;2022-11-15T05:37:43;1.17;;;0.90;;
32130;SDS011;18639;50.716;7.086;2022-11-15T05:40:09;2.40;;;1.40;;
32130;SDS011;18639;50.716;7.086;2022-11-15T05:42:34;1.40;;;0.80;;
32130;SDS011;18639;50.716;7.086;2022-11-15T05:45:00;1.98;;;1.00;;
32130;SDS011;18639;50.716;7.086;2022-11-15T05:47:28;2.13;;;1.00;;
32130;SDS011;18639;50.716;7.086;2022-11-15T05:49:55;1.77;;;1.00;;
32130;SDS011;18639;50.716;7.086;2022-11-15T05:52:23;1.65;;;0.88;;
32130;SDS011;18639;50.716;7.086;2022-11-15T05:54:52;1.75;;;0.80;;
32130;SDS011;18639;50.716;7.086;2022-11-15T05:57:18;1.58;;;0.90;;
32130;SDS011;18639;50.716;7.086;2022-11-15T05:59:44;2.50;;;0.90;;
32130;SDS011;18639;50.716;7.086;2022-11-15T06:02:10;1.55;;;1.05;;
32130;SDS011;18639;50.716;7.086;2022-11-15T06:04:35;0.80;;;0.65;;
32130;SDS011;18639;50.716;7.086;2022-11-15T06:07:01;2.95;;;0.80;;
32130;SDS011;18639;50.716;7.086;2022-11-15T06:09:26;1.95;;;1.10;;
32130;SDS011;18639;50.716;7.086;2022-11-15T06:11:51;1.27;;;1.00;;
32130;SDS011;18639;50.716;7.086;2022-11-15T06:14:17;1.80;;;1.05;;
32130;SDS011;18639;50.716;7.086;2022-11-15T06:16:43;1.75;;;1.02;;
32130;SDS011;18639;50.716;7.086;2022-11-15T06:19:08;1.13;;;0.93;;
32130;SDS011;18639;50.716;7.086;2022-11-15T06:21:34;1.77;;;1.00;;
32130;SDS011;18639;50.716;7.086;2022-11-15T06:23:59;2.15;;;1.10;;
32130;SDS011;18639;50.716;7.086;2022-11-15T06:26:24;2.35;;;1.20;;
32130;SDS011;18639;50.716;7.086;2022-11-15T06:28:49;2.05;;;0.95;;
32130;SDS011;18639;50.716;7.086;2022-11-15T06:31:15;2.03;;;1.17;;
32130;SDS011;18639;50.716;7.086;2022-11-15T06:33:40;1.25;;;0.88;;
32130;SDS011;18639;50.716;7.086;2022-11-15T06:36:07;3.05;;;1.27;;
32130;SDS011;18639;50.716;7.086;2022-11-15T06:38:34;1.67;;;1.05;;
32130;SDS011;18639;50.716;7.086;2022-11-15T06:41:01;2.72;;;1.27;;
32130;SDS011;18639;50.716;7.086;2022-11-15T06:43:27;2.47;;;1.05;;
32130;SDS011;18639;50.716;7.086;2022-11-15T06:45:52;1.50;;;0.90;;
32130;SDS011;18639;50.716;7.086;2022-11-15T06:48:18;1.40;;;1.00;;
32130;SDS011;18639;50.716;7.086;2022-11-15T06:50:49;1.38;;;0.88;;
32130;SDS011;18639;50.716;7.086;2022-11-15T06:53:15;1.77;;;1.10;;
32130;SDS011;18639;50.716;7.086;2022-11-15T06:55:41;3.35;;;1.73;;
32130;SDS011;18639;50.716;7.086;2022-11-15T06:58:06;8.10;;;2.55;;
32130;SDS011;18639;50.716;7.086;2022-11-15T07:00:31;2.45;;;0.82;;
32130;SDS011;18639;50.716;7.086;2022-11-15T07:02:59;1.33;;;0.85;;
32130;SDS011;18639;50.716;7.086;2022-11-15T07:05:24;1.30;;;1.20;;
32130;SDS011;18639;50.716;7.086;2022-11-15T07:07:51;1.45;;;0.80;;
32130;SDS011;18639;50.716;7.086;2022-11-15T07:10:20;2.20;;;1.10;;
32130;SDS011;18639;50.716;7.086;2022-11-15T07:12:47;1.80;;;0.80;;
32130;SDS011;18639;50.716;7.086;2022-11-15T07:15:13;1.05;;;0.80;;
32130;SDS011;18639;50.716;7.086;2022-11-15T07:17:39;2.05;;;1.10;;
32130;SDS011;18639;50.716;7.086;2022-11-15T07:20:05;2.30;;;0.85;;
32130;SDS011;18639;50.716;7.086;2022-11-15T07:22:30;1.48;;;0.88;;
32130;SDS011;18639;50.716;7.086;2022-11-15T07:24:56;1.67;;;1.10;;
32130;SDS011;18639;50.716;7.086;2022-11-15T07:27:21;1.17;;;0.70;;
32130;SDS011;18639;50.716;7.086;2022-11-15T07:29:46;0.80;;;0.73;;
32130;SDS011;18639;50.716;7.086;2022-11-15T07:32:11;1.20;;;1.00;;
32130;SDS011;18639;50.716;7.086;2022-11-15T07:34:37;1.10;;;0.75;;
32130;SDS011;18639;50.716;7.086;2022-11-15T07:37:02;1.20;;;0.65;;
32130;SDS011;18639;50.716;7.086;2022-11-15T07:39:27;1.20;;;0.73;;
32130;SDS011;18639;50.716;7.086;2022-11-15T07:41:52;0.85;;;0.60;;
32130;SDS011;18639;50.716;7.086;2022-11-15T07:44:38;1.67;;;1.13;;
32130;SDS011;18639;50.716;7.086;2022-11-15T07:47:03;1.48;;;1.05;;
32130;SDS011;18639;50.716;7.086;2022-11-15T07:49:28;1.13;;;0.60;;
32130;SDS011;18639;50.716;7.086;2022-11-15T07:51:53;1.70;;;0.80;;
32130;SDS011;18639;50.716;7.086;2022-11-15T07:54:19;0.65;;;0.65;;
32130;SDS011;18639;50.716;7.086;2022-11-15T07:56:44;0.70;;;0.60;;
32130;SDS011;18639;50.716;7.086;2022-11-15T07:59:09;0.65;;;0.52;;
32130;SDS011;18639;50.716;7.086;2022-11-15T08:01:34;0.95;;;0.60;;
32130;SDS011;18639;50.716;7.086;2022-11-15T08:04:00;1.00;;;0.52;;
32130;SDS011;18639;50.716;7.086;2022-11-15T08:06:25;1.35;;;0.70;;
32130;SDS011;18639;50.716;7.086;2022-11-15T08:08:50;0.93;;;0.60;;
32130;SDS011;18639;50.716;7.086;2022-11-15T08:11:15;0.45;;;0.45;;
32130;SDS011;18639;50.716;7.086;2022-11-15T08:13:41;0.65;;;0.60;;
32130;SDS011;18639;50.716;7.086;2022-11-15T08:16:06;0.60;;;0.60;;
32130;SDS011;18639;50.716;7.086;2022-11-15T08:18:33;1.42;;;0.70;;
32130;SDS011;18639;50.716;7.086;2022-11-15T08:21:00;0.50;;;0.47;;
32130;SDS011;18639;50.716;7.086;2022-11-15T08:23:26;1.05;;;0.70;;
32130;SDS011;18639;50.716;7.086;2022-11-15T08:25:51;0.52;;;0.52;;
32130;SDS011;18639;50.716;7.086;2022-11-15T08:28:16;0.98;;;0.55;;
32130;SDS011;18639;50.716;7.086;2022-11-15T08:30:42;1.83;;;0.70;;
32130;SDS011;18639;50.716;7.086;2022-11-15T08:33:12;0.65;;;0.43;;
32130;SDS011;18639;50.716;7.086;2022-11-15T08:35:39;0.50;;;0.50;;
32130;SDS011;18639;50.716;7.086;2022-11-15T08:38:05;1.02;;;0.60;;
32130;SDS011;18639;50.716;7.086;2022-11-15T08:40:31;0.57;;;0.50;;
32130;SDS011;18639;50.716;7.086;2022-11-15T08:42:56;0.47;;;0.40;;
32130;SDS011;18639;50.716;7.086;2022-11-15T08:45:21;0.40;;;0.40;;
32130;SDS011;18639;50.716;7.086;2022-11-15T08:47:46;0.80;;;0.40;;
32130;SDS011;18639;50.716;7.086;2022-11-15T08:50:12;0.57;;;0.47;;
32130;SDS011;18639;50.716;7.086;2022-11-15T08:52:37;0.43;;;0.43;;
32130;SDS011;18639;50.716;7.086;2022-11-15T08:55:02;0.63;;;0.50;;
32130;SDS011;18639;50.716;7.086;2022-11-15T08:57:28;1.85;;;0.60;;
32130;SDS011;18639;50.716;7.086;2022-11-15T08:59:55;0.50;;;0.50;;
32130;SDS011;18639;50.716;7.086;2022-11-15T09:02:20;0.85;;;0.50;;
32130;SDS011;18639;50.716;7.086;2022-11-15T09:04:46;0.65;;;0.45;;
32130;SDS011;18639;50.716;7.086;2022-11-15T09:07:11;0.40;;;0.40;;
32130;SDS011;18639;50.716;7.086;2022-11-15T09:09:38;0.55;;;0.50;;
32130;SDS011;18639;50.716;7.086;2022-11-15T09:12:03;0.65;;;0.40;;
32130;SDS011;18639;50.716;7.086;2022-11-15T09:14:30;0.75;;;0.45;;
32130;SDS011;18639;50.716;7.086;2022-11-15T09:16:55;0.75;;;0.50;;
32130;SDS011;18639;50.716;7.086;2022-11-15T09:19:20;0.30;;;0.30;;
32130;SDS011;18639;50.716;7.086;2022-11-15T09:21:46;0.50;;;0.50;;
32130;SDS011;18639;50.716;7.086;2022-11-15T09:24:11;0.52;;;0.38;;
32130;SDS011;18639;50.716;7.086;2022-11-15T09:26:36;1.45;;;0.40;;
32130;SDS011;18639;50.716;7.086;2022-11-15T09:29:02;0.20;;;0.20;;
32130;SDS011;18639;50.716;7.086;2022-11-15T09:31:27;1.13;;;0.47;;
32130;SDS011;18639;50.716;7.086;2022-11-15T09:33:54;0.50;;;0.40;;
32130;SDS011;18639;50.716;7.086;2022-11-15T09:36:19;0.40;;;0.40;;
32130;SDS011;18639;50.716;7.086;2022-11-15T09:38:45;0.30;;;0.30;;
32130;SDS011;18639;50.716;7.086;2022-11-15T09:46:32;0.90;;;0.55;;
32130;SDS011;18639;50.716;7.086;2022-11-15T09:49:18;0.65;;;0.45;;
32130;SDS011;18639;50.716;7.086;2022-11-15T09:51:45;0.85;;;0.50;;
32130;SDS011;18639;50.716;7.086;2022-11-15T09:56:41;0.30;;;0.30;;
32130;SDS011;18639;50.716;7.086;2022-11-15T10:04:25;0.30;;;0.30;;
32130;SDS011;18639;50.716;7.086;2022-11-15T10:07:02;0.30;;;0.30;;
32130;SDS011;18639;50.716;7.086;2022-11-15T10:09:43;0.95;;;0.43;;
32130;SDS011;18639;50.716;7.086;2022-11-15T10:12:33;1.17;;;0.50;;
32130;SDS011;18639;50.716;7.086;2022-11-15T10:15:00;0.55;;;0.30;;
32130;SDS011;18639;50.716;7.086;2022-11-15T10:17:38;1.23;;;0.50;;
32130;SDS011;18639;50.716;7.086;2022-11-15T10:22:45;0.85;;;0.50;;
32130;SDS011;18639;50.716;7.086;2022-11-15T10:25:15;0.45;;;0.30;;
32130;SDS011;18639;50.716;7.086;2022-11-15T10:28:21;0.60;;;0.32;;
32130;SDS011;18639;50.716;7.086;2022-11-15T10:30:44;0.30;;;0.30;;
32130;SDS011;18639;50.716;7.086;2022-11-15T10:41:36;0.40;;;0.40;;
32130;SDS011;18639;50.716;7.086;2022-11-15T10:46:34;0.20;;;0.20;;
32130;SDS011;18639;50.716;7.086;2022-11-15T10:57:22;0.30;;;0.30;;
32130;SDS011;18639;50.716;7.086;2022-11-15T11:00:07;1.40;;;0.40;;
32130;SDS011;18639;50.716;7.086;2022-11-15T11:05:25;0.43;;;0.40;;
32130;SDS011;18639;50.716;7.086;2022-11-15T11:07:57;0.50;;;0.43;;
32130;SDS011;18639;50.716;7.086;2022-11-15T11:10:24;0.30;;;0.30;;
32130;SDS011;18639;50.716;7.086;2022-11-15T11:12:50;0.20;;;0.20;;
32130;SDS011;18639;50.716;7.086;2022-11-15T11:15:15;0.40;;;0.40;;
32130;SDS011;18639;50.716;7.086;2022-11-15T11:17:48;0.40;;;0.40;;
32130;SDS011;18639;50.716;7.086;2022-11-15T11:20:38;0.38;;;0.38;;
32130;SDS011;18639;50.716;7.086;2022-11-15T11:25:55;1.33;;;0.30;;
32130;SDS011;18639;50.716;7.086;2022-11-15T11:28:42;0.30;;;0.30;;
32130;SDS011;18639;50.716;7.086;2022-11-15T11:31:27;0.45;;;0.38;;
32130;SDS011;18639;50.716;7.086;2022-11-15T11:36:59;0.30;;;0.30;;
32130;SDS011;18639;50.716;7.086;2022-11-15T11:47:51;0.45;;;0.40;;
32130;SDS011;18639;50.716;7.086;2022-11-15T11:50:24;0.40;;;0.40;;
32130;SDS011;18639;50.716;7.086;2022-11-15T11:52:56;0.25;;;0.25;;
32130;SDS011;18639;50.716;7.086;2022-11-15T11:55:50;0.22;;;0.22;;
32130;SDS011;18639;50.716;7.086;2022-11-15T12:00:59;2.25;;;0.38;;
32130;SDS011;18639;50.716;7.086;2022-11-15T12:03:44;1.73;;;0.50;;
32130;SDS011;18639;50.716;7.086;2022-11-15T12:09:06;0.50;;;0.40;;
32130;SDS011;18639;50.716;7.086;2022-11-15T12:17:12;0.40;;;0.40;;
32130;SDS011;18639;50.716;7.086;2022-11-15T12:19:41;1.13;;;0.40;;
32130;SDS011;18639;50.716;7.086;2022-11-15T12:22:24;0.40;;;0.40;;
32130;SDS011;18639;50.716;7.086;2022-11-15T12:25:54;0.52;;;0.52;;
32130;SDS011;18639;50.716;7.086;2022-11-15T12:28:11;0.75;;;0.50;;
32130;SDS011;18639;50.716;7.086;2022-11-15T12:31:01;1.52;;;0.40;;
32130;SDS011;18639;50.716;7.086;2022-11-15T12:33:34;0.73;;;0.43;;
32130;SDS011;18639;50.716;7.086;2022-11-15T12:36:03;0.95;;;0.70;;
32130;SDS011;18639;50.716;7.086;2022-11-15T12:38:49;1.08;;;0.60;;
32130;SDS011;18639;50.716;7.086;2022-11-15T12:41:26;1.08;;;0.60;;
32130;SDS011;18639;50.716;7.086;2022-11-15T12:43:53;1.30;;;0.63;;
32130;SDS011;18639;50.716;7.086;2022-11-15T12:47:03;0.50;;;0.47;;
32130;SDS011;18639;50.716;7.086;2022-11-15T12:49:42;4.60;;;1.08;;
32130;SDS011;18639;50.716;7.086;2022-11-15T13:02:43;3.38;;;0.60;;
32130;SDS011;18639;50.716;7.086;2022-11-15T13:15:46;1.10;;;0.70;;
32130;SDS011;18639;50.716;7.086;2022-11-15T13:17:57;1.60;;;1.00;;
32130;SDS011;18639;50.716;7.086;2022-11-15T13:20:25;2.10;;;0.88;;
32130;SDS011;18639;50.716;7.086;2022-11-15T13:22:58;1.00;;;0.80;;
32130;SDS011;18639;50.716;7.086;2022-11-15T13:30:56;2.67;;;1.02;;
32130;SDS011;18639;50.716;7.086;2022-11-15T13:33:34;1.48;;;0.70;;
32130;SDS011;18639;50.716;7.086;2022-11-15T13:36:02;1.08;;;0.70;;
32130;SDS011;18639;50.716;7.086;2022-11-15T13:38:31;1.50;;;0.88;;
32130;SDS011;18639;50.716;7.086;2022-11-15T13:40:59;1.20;;;0.80;;
32130;SDS011;18639;50.716;7.086;2022-11-15T13:43:35;1.30;;;0.80;;
32130;SDS011;18639;50.716;7.086;2022-11-15T13:46:04;0.80;;;0.70;;
32130;SDS011;18639;50.716;7.086;2022-11-15T13:48:35;1.33;;;0.70;;
32130;SDS011;18639;50.716;7.086;2022-11-15T13:51:02;3.58;;;0.88;;
32130;SDS011;18639;50.716;7.086;2022-11-15T13:53:30;1.33;;;0.77;;
32130;SDS011;18639;50.716;7.086;2022-11-15T13:55:57;1.33;;;0.80;;
32130;SDS011;18639;50.716;7.086;2022-11-15T13:58:23;1.17;;;0.70;;
32130;SDS011;18639;50.716;7.086;2022-11-15T14:00:49;1.10;;;0.70;;
32130;SDS011;18639;50.716;7.086;2022-11-15T14:03:31;0.60;;;0.60;;
32130;SDS011;18639;50.716;7.086;2022-11-15T14:06:08;2.25;;;1.13;;
32130;SDS011;18639;50.716;7.086;2022-11-15T14:08:37;1.10;;;0.70;;
32130;SDS011;18639;50.716;7.086;2022-11-15T14:13:34;1.02;;;0.60;;
32130;SDS011;18639;50.716;7.086;2022-11-15T14:16:13;2.03;;;1.05;;
32130;SDS011;18639;50.716;7.086;2022-11-15T14:18:41;0.70;;;0.60;;
32130;SDS011;18639;50.716;7.086;2022-11-15T14:21:16;1.65;;;0.90;;
32130;SDS011;18639;50.716;7.086;2022-11-15T14:23:42;1.48;;;0.60;;
32130;SDS011;18639;50.716;7.086;2022-11-15T14:26:25;3.42;;;0.75;;
32130;SDS011;18639;50.716;7.086;2022-11-15T14:28:51;1.75;;;0.70;;
32130;SDS011;18639;50.716;7.086;2022-11-15T14:31:16;1.05;;;0.77;;
32130;SDS011;18639;50.716;7.086;2022-11-15T14:33:42;0.70;;;0.50;;
32130;SDS011;18639;50.716;7.086;2022-11-15T14:36:11;0.70;;;0.70;;
32130;SDS011;18639;50.716;7.086;2022-11-15T14:38:39;0.98;;;0.85;;
32130;SDS011;18639;50.716;7.086;2022-11-15T14:41:05;0.60;;;0.55;;
32130;SDS011;18639;50.716;7.086;2022-11-15T14:43:30;0.63;;;0.47;;
32130;SDS011;18639;50.716;7.086;2022-11-15T14:45:56;2.72;;;0.80;;
32130;SDS011;18639;50.716;7.086;2022-11-15T14:48:21;0.75;;;0.57;;
32130;SDS011;18639;50.716;7.086;2022-11-15T14:50:47;1.63;;;0.68;;
32130;SDS011;18639;50.716;7.086;2022-11-15T14:53:13;1.02;;;0.50;;
32130;SDS011;18639;50.716;7.086;2022-11-15T14:55:41;0.70;;;0.52;;
32130;SDS011;18639;50.716;7.086;2022-11-15T14:58:06;2.03;;;0.55;;
32130;SDS011;18639;50.716;7.086;2022-11-15T15:00:35;1.33;;;0.70;;
32130;SDS011;18639;50.716;7.086;2022-11-15T15:03:03;0.50;;;0.50;;
32130;SDS011;18639;50.716;7.086;2022-11-15T15:05:47;1.08;;;0.60;;
32130;SDS011;18639;50.716;7.086;2022-11-15T15:08:13;0.70;;;0.70;;
32130;SDS011;18639;50.716;7.086;2022-11-15T15:10:43;1.35;;;0.75;;
32130;SDS011;18639;50.716;7.086;2022-11-15T15:13:20;0.68;;;0.60;;
32130;SDS011;18639;50.716;7.086;2022-11-15T15:15:47;0.80;;;0.60;;
32130;SDS011;18639;50.716;7.086;2022-11-15T15:18:13;1.17;;;0.60;;
32130;SDS011;18639;50.716;7.086;2022-11-15T15:20:39;1.10;;;0.63;;
32130;SDS011;18639;50.716;7.086;2022-11-15T15:23:08;1.30;;;0.70;;
32130;SDS011;18639;50.716;7.086;2022-11-15T15:25:40;2.75;;;0.82;;
32130;SDS011;18639;50.716;7.086;2022-11-15T15:28:06;1.77;;;0.70;;
32130;SDS011;18639;50.716;7.086;2022-11-15T15:30:32;1.02;;;0.60;;
32130;SDS011;18639;50.716;7.086;2022-11-15T15:32:57;5.47;;;0.70;;
32130;SDS011;18639;50.716;7.086;2022-11-15T15:35:22;1.45;;;0.80;;
32130;SDS011;18639;50.716;7.086;2022-11-15T15:37:53;1.20;;;0.57;;
32130;SDS011;18639;50.716;7.086;2022-11-15T15:40:20;1.40;;;0.60;;
32130;SDS011;18639;50.716;7.086;2022-11-15T15:42:47;1.67;;;0.80;;
32130;SDS011;18639;50.716;7.086;2022-11-15T15:45:14;0.80;;;0.70;;
32130;SDS011;18639;50.716;7.086;2022-11-15T15:47:40;1.05;;;0.85;;
32130;SDS011;18639;50.716;7.086;2022-11-15T15:50:23;0.63;;;0.50;;
32130;SDS011;18639;50.716;7.086;2022-11-15T15:52:54;0.60;;;0.52;;
32130;SDS011;18639;50.716;7.086;2022-11-15T15:55:20;0.82;;;0.68;;
32130;SDS011;18639;50.716;7.086;2022-11-15T15:57:46;0.80;;;0.60;;
32130;SDS011;18639;50.716;7.086;2022-11-15T16:00:12;0.85;;;0.60;;
32130;SDS011;18639;50.716;7.086;2022-11-15T16:02:39;1.17;;;0.70;;
32130;SDS011;18639;50.716;7.086;2022-11-15T16:05:04;0.95;;;0.60;;
32130;SDS011;18639;50.716;7.086;2022-11-15T16:07:31;1.65;;;0.70;;
32130;SDS011;18639;50.716;7.086;2022-11-15T16:09:56;1.75;;;0.80;;
32130;SDS011;18639;50.716;7.086;2022-11-15T16:12:25;0.80;;;0.60;;
32130;SDS011;18639;50.716;7.086;2022-11-15T16:14:53;0.82;;;0.63;;
32130;SDS011;18639;50.716;7.086;2022-11-15T16:17:23;0.95;;;0.70;;
32130;SDS011;18639;50.716;7.086;2022-11-15T16:19:51;1.10;;;0.80;;
32130;SDS011;18639;50.716;7.086;2022-11-15T16:22:16;1.05;;;0.70;;
32130;SDS011;18639;50.716;7.086;2022-11-15T16:24:41;1.42;;;0.77;;
32130;SDS011;18639;50.716;7.086;2022-11-15T16:27:17;0.90;;;0.70;;
32130;SDS011;18639;50.716;7.086;2022-11-15T16:29:44;1.33;;;0.70;;
32130;SDS011;18639;50.716;7.086;2022-11-15T16:32:10;0.73;;;0.60;;
32130;SDS011;18639;50.716;7.086;2022-11-15T16:34:36;1.80;;;0.80;;
32130;SDS011;18639;50.716;7.086;2022-11-15T16:37:01;0.60;;;0.60;;
32130;SDS011;18639;50.716;7.086;2022-11-15T16:39:26;2.78;;;0.80;;
32130;SDS011;18639;50.716;7.086;2022-11-15T16:41:54;1.45;;;0.80;;
32130;SDS011;18639;50.716;7.086;2022-11-15T16:44:23;1.17;;;0.70;;
32130;SDS011;18639;50.716;7.086;2022-11-15T16:46:49;1.33;;;0.70;;
32130;SDS011;18639;50.716;7.086;2022-11-15T16:49:16;1.60;;;0.80;;
32130;SDS011;18639;50.716;7.086;2022-11-15T16:51:46;4.15;;;1.80;;
32130;SDS011;18639;50.716;7.086;2022-11-15T16:54:12;2.25;;;0.98;;